sensor_id;sensor_type;location;lat;lon;timestamp;pressure;altitude;pressure_sealevel;temperature;humidity
6028;BME280;3042;43.194;27.646;2023-07-29T00:03:50;101349.56;;;24.31;100.00
6028;BME280;3042;43.194;27.646;2023-07-29T00:06:17;101360.13;;;24.25;100.00
6028;BME280;3042;43.194;27.646;2023-07-29T00:08:44;101201.88;;;23.29;100.00
6028;BME280;3042;43.194;27.646;2023-07-29T00:11:11;101356.63;;;24.19;100.00
6028;BME280;3042;43.194;27.646;2023-07-29T00:13:40;101357.50;;;24.14;100.00
6028;BME280;3042;43.194;27.646;2023-07-29T00:16:07;101352.25;;;23.98;100.00
6028;BME280;3042;43.194;27.646;2023-07-29T00:18:34;101353.13;;;23.76;100.00
6028;BME280;3042;43.194;27.646;2023-07-29T00:21:01;101346.09;;;23.86;100.00
6028;BME280;3042;43.194;27.646;2023-07-29T00:23:29;101344.34;;;23.85;100.00
6028;BME280;3042;43.194;27.646;2023-07-29T00:25:56;101341.69;;;23.83;100.00
6028;BME280;3042;43.194;27.646;2023-07-29T00:28:23;101328.47;;;23.72;100.00
6028;BME280;3042;43.194;27.646;2023-07-29T00:30:52;100683.84;;;20.02;100.00
6028;BME280;3042;43.194;27.646;2023-07-29T00:33:19;101335.53;;;23.83;100.00
6028;BME280;3042;43.194;27.646;2023-07-29T00:35:46;101329.41;;;23.79;100.00
6028;BME280;3042;43.194;27.646;2023-07-29T00:38:13;101324.09;;;23.76;100.00
6028;BME280;3042;43.194;27.646;2023-07-29T00:40:40;101325.84;;;23.74;100.00
6028;BME280;3042;43.194;27.646;2023-07-29T00:43:07;101317.91;;;23.69;100.00
6028;BME280;3042;43.194;27.646;2023-07-29T00:45:35;101326.72;;;23.68;100.00
6028;BME280;3042;43.194;27.646;2023-07-29T00:48:05;101223.00;;;23.11;100.00
6028;BME280;3042;43.194;27.646;2023-07-29T00:50:35;101251.09;;;23.24;100.00
6028;BME280;3042;43.194;27.646;2023-07-29T00:53:06;101317.03;;;23.69;100.00
6028;BME280;3042;43.194;27.646;2023-07-29T00:55:39;101321.44;;;23.62;100.00
6028;BME280;3042;43.194;27.646;2023-07-29T00:58:08;101316.16;;;23.59;100.00
6028;BME280;3042;43.194;27.646;2023-07-29T01:00:36;101297.69;;;23.53;100.00
6028;BME280;3042;43.194;27.646;2023-07-29T01:03:06;101312.66;;;23.60;100.00
6028;BME280;3042;43.194;27.646;2023-07-29T01:05:40;101310.03;;;23.60;100.00
6028;BME280;3042;43.194;27.646;2023-07-29T01:08:43;101256.34;;;23.03;100.00
6028;BME280;3042;43.194;27.646;2023-07-29T01:11:43;100988.25;;;21.40;100.00
6028;BME280;3042;43.194;27.646;2023-07-29T01:14:19;101310.91;;;23.34;100.00
6028;BME280;3042;43.194;27.646;2023-07-29T01:16:53;101305.59;;;23.31;100.00
6028;BME280;3042;43.194;27.646;2023-07-29T01:19:42;101296.81;;;23.35;100.00
6028;BME280;3042;43.194;27.646;2023-07-29T01:22:11;101225.56;;;22.94;100.00
6028;BME280;3042;43.194;27.646;2023-07-29T01:24:39;101301.22;;;23.35;100.00
6028;BME280;3042;43.194;27.646;2023-07-29T01:27:11;101297.69;;;23.33;100.00
6028;BME280;3042;43.194;27.646;2023-07-29T01:29:38;101298.56;;;23.24;100.00
6028;BME280;3042;43.194;27.646;2023-07-29T01:32:10;101297.69;;;23.24;100.00
6028;BME280;3042;43.194;27.646;2023-07-29T01:34:41;101303.84;;;23.21;100.00
6028;BME280;3042;43.194;27.646;2023-07-29T01:37:27;101305.59;;;23.16;100.00
6028;BME280;3042;43.194;27.646;2023-07-29T01:40:00;101306.47;;;23.12;100.00
6028;BME280;3042;43.194;27.646;2023-07-29T01:42:28;101268.63;;;22.90;100.00
6028;BME280;3042;43.194;27.646;2023-07-29T01:44:56;101295.94;;;23.09;100.00
6028;BME280;3042;43.194;27.646;2023-07-29T01:47:23;101308.19;;;23.01;100.00
6028;BME280;3042;43.194;27.646;2023-07-29T01:49:50;101254.50;;;22.68;100.00
6028;BME280;3042;43.194;27.646;2023-07-29T01:52:17;101309.03;;;22.96;100.00
6028;BME280;3042;43.194;27.646;2023-07-29T01:54:44;101309.91;;;22.95;100.00
6028;BME280;3042;43.194;27.646;2023-07-29T01:57:12;101314.28;;;22.92;100.00
6028;BME280;3042;43.194;27.646;2023-07-29T01:59:39;101316.03;;;22.85;100.00
6028;BME280;3042;43.194;27.646;2023-07-29T02:02:09;101290.53;;;22.69;100.00
6028;BME280;3042;43.194;27.646;2023-07-29T02:04:37;101286.06;;;22.55;100.00
6028;BME280;3042;43.194;27.646;2023-07-29T02:07:05;101212.06;;;22.00;100.00
6028;BME280;3042;43.194;27.646;2023-07-29T02:09:32;101284.25;;;22.39;100.00
6028;BME280;3042;43.194;27.646;2023-07-29T02:11:59;101311.53;;;22.53;100.00
6028;BME280;3042;43.194;27.646;2023-07-29T02:14:28;101127.63;;;21.45;100.00
6028;BME280;3042;43.194;27.646;2023-07-29T02:17:06;101308.88;;;22.50;100.00
6028;BME280;3042;43.194;27.646;2023-07-29T02:19:34;101226.13;;;21.99;100.00
6028;BME280;3042;43.194;27.646;2023-07-29T02:22:01;101300.97;;;22.46;100.00
6028;BME280;3042;43.194;27.646;2023-07-29T02:24:29;101304.44;;;22.45;100.00
6028;BME280;3042;43.194;27.646;2023-07-29T02:27:04;101300.09;;;22.45;100.00
6028;BME280;3042;43.194;27.646;2023-07-29T02:29:33;101262.16;;;22.16;100.00
6028;BME280;3042;43.194;27.646;2023-07-29T02:32:00;101313.22;;;22.39;100.00
6028;BME280;3042;43.194;27.646;2023-07-29T02:34:27;101311.47;;;22.37;100.00
6028;BME280;3042;43.194;27.646;2023-07-29T02:36:54;101287.59;;;22.17;100.00
6028;BME280;3042;43.194;27.646;2023-07-29T02:39:21;101314.94;;;22.36;100.00
6028;BME280;3042;43.194;27.646;2023-07-29T02:41:48;101314.06;;;22.35;100.00
6028;BME280;3042;43.194;27.646;2023-07-29T02:44:16;101176.75;;;21.55;100.00
6028;BME280;3042;43.194;27.646;2023-07-29T02:46:44;101315.84;;;22.39;100.00
6028;BME280;3042;43.194;27.646;2023-07-29T02:49:15;101310.53;;;22.33;100.00
6028;BME280;3042;43.194;27.646;2023-07-29T02:51:46;101325.31;;;22.08;100.00
6028;BME280;3042;43.194;27.646;2023-07-29T02:54:13;101327.00;;;22.00;100.00
6028;BME280;3042;43.194;27.646;2023-07-29T02:56:41;101326.13;;;21.96;100.00
6028;BME280;3042;43.194;27.646;2023-07-29T02:59:08;101271.59;;;21.78;100.00
6028;BME280;3042;43.194;27.646;2023-07-29T03:01:39;101333.28;;;22.20;100.00
6028;BME280;3042;43.194;27.646;2023-07-29T03:04:14;101326.34;;;22.27;100.00
6028;BME280;3042;43.194;27.646;2023-07-29T03:06:56;101139.72;;;21.24;100.00
6028;BME280;3042;43.194;27.646;2023-07-29T03:09:28;101319.38;;;22.43;100.00
6028;BME280;3042;43.194;27.646;2023-07-29T03:12:01;101319.41;;;22.46;100.00
6028;BME280;3042;43.194;27.646;2023-07-29T03:14:29;101311.47;;;22.37;100.00
6028;BME280;3042;43.194;27.646;2023-07-29T03:17:11;101315.91;;;22.51;100.00
6028;BME280;3042;43.194;27.646;2023-07-29T03:19:45;101298.22;;;22.23;100.00
6028;BME280;3042;43.194;27.646;2023-07-29T03:22:17;101329.81;;;22.26;100.00
6028;BME280;3042;43.194;27.646;2023-07-29T03:25:02;101329.88;;;22.32;100.00
6028;BME280;3042;43.194;27.646;2023-07-29T03:27:45;101328.13;;;22.34;100.00
6028;BME280;3042;43.194;27.646;2023-07-29T03:30:19;101309.69;;;22.34;100.00
6028;BME280;3042;43.194;27.646;2023-07-29T03:32:49;101312.38;;;22.49;100.00
6028;BME280;3042;43.194;27.646;2023-07-29T03:35:17;101319.47;;;22.60;100.00
6028;BME280;3042;43.194;27.646;2023-07-29T03:37:44;101313.34;;;22.67;100.00
6028;BME280;3042;43.194;27.646;2023-07-29T03:40:13;101312.50;;;22.74;100.00
6028;BME280;3042;43.194;27.646;2023-07-29T03:42:40;101316.03;;;22.91;100.00
6028;BME280;3042;43.194;27.646;2023-07-29T03:45:08;101316.13;;;23.10;100.00
6028;BME280;3042;43.194;27.646;2023-07-29T03:47:36;101289.75;;;23.13;100.00
6028;BME280;3042;43.194;27.646;2023-07-29T03:50:04;101188.63;;;22.71;100.00
6028;BME280;3042;43.194;27.646;2023-07-29T03:52:35;101308.25;;;23.65;100.00
6028;BME280;3042;43.194;27.646;2023-07-29T03:55:02;101317.06;;;23.86;100.00
6028;BME280;3042;43.194;27.646;2023-07-29T03:57:29;101310.84;;;24.08;100.00
6028;BME280;3042;43.194;27.646;2023-07-29T03:59:56;101311.69;;;24.27;100.00
6028;BME280;3042;43.194;27.646;2023-07-29T04:02:23;101314.28;;;24.46;100.00
6028;BME280;3042;43.194;27.646;2023-07-29T04:04:50;101312.47;;;24.61;100.00
6028;BME280;3042;43.194;27.646;2023-07-29T04:07:17;101284.28;;;24.60;100.00
6028;BME280;3042;43.194;27.646;2023-07-29T04:09:45;101318.53;;;24.85;100.00
6028;BME280;3042;43.194;27.646;2023-07-29T04:12:15;101311.41;;;24.99;100.00
6028;BME280;3042;43.194;27.646;2023-07-29T04:14:42;101121.69;;;23.95;100.00
6028;BME280;3042;43.194;27.646;2023-07-29T04:17:09;101315.69;;;25.19;100.00
6028;BME280;3042;43.194;27.646;2023-07-29T04:19:36;101319.13;;;25.33;100.00
6028;BME280;3042;43.194;27.646;2023-07-29T04:22:03;101319.03;;;25.45;100.00
6028;BME280;3042;43.194;27.646;2023-07-29T04:24:30;101258.38;;;25.22;100.00
6028;BME280;3042;43.194;27.646;2023-07-29T04:26:58;101308.09;;;25.88;100.00
6028;BME280;3042;43.194;27.646;2023-07-29T04:29:25;101316.81;;;26.00;100.00
6028;BME280;3042;43.194;27.646;2023-07-29T04:31:52;101318.34;;;26.22;100.00
6028;BME280;3042;43.194;27.646;2023-07-29T04:34:19;101303.13;;;26.40;100.00
6028;BME280;3042;43.194;27.646;2023-07-29T04:36:48;101314.44;;;26.54;100.00
6028;BME280;3042;43.194;27.646;2023-07-29T04:39:15;101315.94;;;26.75;100.00
6028;BME280;3042;43.194;27.646;2023-07-29T04:41:43;101226.25;;;26.40;100.00
6028;BME280;3042;43.194;27.646;2023-07-29T04:44:12;101290.84;;;27.01;100.00
6028;BME280;3042;43.194;27.646;2023-07-29T04:46:39;101321.41;;;27.28;100.00
6028;BME280;3042;43.194;27.646;2023-07-29T04:49:06;101316.56;;;27.53;100.00
6028;BME280;3042;43.194;27.646;2023-07-29T04:51:33;101327.25;;;27.48;100.00
6028;BME280;3042;43.194;27.646;2023-07-29T04:54:00;101231.28;;;27.22;100.00
6028;BME280;3042;43.194;27.646;2023-07-29T04:56:27;101320.31;;;27.94;100.00
6028;BME280;3042;43.194;27.646;2023-07-29T04:58:54;101303.88;;;28.18;100.00
6028;BME280;3042;43.194;27.646;2023-07-29T05:01:22;101311.31;;;28.48;100.00
6028;BME280;3042;43.194;27.646;2023-07-29T05:03:50;101289.91;;;28.54;100.00
6028;BME280;3042;43.194;27.646;2023-07-29T05:06:17;101177.44;;;28.07;100.00
6028;BME280;3042;43.194;27.646;2023-07-29T05:08:45;101260.78;;;28.87;100.00
6028;BME280;3042;43.194;27.646;2023-07-29T05:11:14;101312.31;;;29.23;100.00
6028;BME280;3042;43.194;27.646;2023-07-29T05:13:41;101314.25;;;29.16;100.00
6028;BME280;3042;43.194;27.646;2023-07-29T05:16:09;101220.41;;;28.69;100.00
6028;BME280;3042;43.194;27.646;2023-07-29T05:18:37;101315.94;;;29.56;100.00
6028;BME280;3042;43.194;27.646;2023-07-29T05:21:04;101320.91;;;29.72;100.00
6028;BME280;3042;43.194;27.646;2023-07-29T05:23:31;101309.94;;;29.82;100.00
6028;BME280;3042;43.194;27.646;2023-07-29T05:25:58;101307.59;;;30.04;100.00
6028;BME280;3042;43.194;27.646;2023-07-29T05:28:25;101298.63;;;30.38;100.00
6028;BME280;3042;43.194;27.646;2023-07-29T05:30:52;101240.53;;;30.49;100.00
6028;BME280;3042;43.194;27.646;2023-07-29T05:33:19;101299.16;;;31.09;100.00
6028;BME280;3042;43.194;27.646;2023-07-29T05:35:48;101297.75;;;31.25;100.00
6028;BME280;3042;43.194;27.646;2023-07-29T05:38:15;101299.53;;;31.25;100.00
6028;BME280;3042;43.194;27.646;2023-07-29T05:40:42;101285.56;;;31.45;100.00
6028;BME280;3042;43.194;27.646;2023-07-29T05:43:09;101293.31;;;31.52;100.00
6028;BME280;3042;43.194;27.646;2023-07-29T05:45:36;101290.50;;;31.82;100.00
6028;BME280;3042;43.194;27.646;2023-07-29T05:48:03;101284.13;;;32.11;100.00
6028;BME280;3042;43.194;27.646;2023-07-29T05:50:30;101170.25;;;31.57;100.00
6028;BME280;3042;43.194;27.646;2023-07-29T05:52:59;101290.75;;;32.25;100.00
6028;BME280;3042;43.194;27.646;2023-07-29T05:55:26;101266.75;;;31.98;100.00
6028;BME280;3042;43.194;27.646;2023-07-29T05:57:53;101286.78;;;32.35;100.00
6028;BME280;3042;43.194;27.646;2023-07-29T06:00:20;101295.63;;;32.13;100.00
6028;BME280;3042;43.194;27.646;2023-07-29T06:02:47;101214.53;;;32.13;100.00
6028;BME280;3042;43.194;27.646;2023-07-29T06:05:14;101267.34;;;32.77;100.00
6028;BME280;3042;43.194;27.646;2023-07-29T06:07:41;101262.88;;;32.99;100.00
6028;BME280;3042;43.194;27.646;2023-07-29T06:10:13;101270.97;;;32.98;100.00
6028;BME280;3042;43.194;27.646;2023-07-29T06:12:43;101273.94;;;33.14;100.00
6028;BME280;3042;43.194;27.646;2023-07-29T06:15:10;101272.88;;;33.18;100.00
6028;BME280;3042;43.194;27.646;2023-07-29T06:17:37;101228.81;;;33.25;100.00
6028;BME280;3042;43.194;27.646;2023-07-29T06:20:05;101209.13;;;33.47;100.00
6028;BME280;3042;43.194;27.646;2023-07-29T06:22:32;101277.06;;;34.07;100.00
6028;BME280;3042;43.194;27.646;2023-07-29T06:24:59;101263.47;;;34.12;100.00
6028;BME280;3042;43.194;27.646;2023-07-29T06:27:27;101257.97;;;34.34;100.00
6028;BME280;3042;43.194;27.646;2023-07-29T06:29:54;101261.44;;;34.55;100.00
6028;BME280;3042;43.194;27.646;2023-07-29T06:32:21;101266.22;;;34.29;100.00
6028;BME280;3042;43.194;27.646;2023-07-29T06:34:48;101245.97;;;34.79;100.00
6028;BME280;3042;43.194;27.646;2023-07-29T06:37:17;101248.59;;;35.17;100.00
6028;BME280;3042;43.194;27.646;2023-07-29T06:39:44;101248.22;;;35.59;100.00
6028;BME280;3042;43.194;27.646;2023-07-29T06:42:11;101241.47;;;35.85;100.00
6028;BME280;3042;43.194;27.646;2023-07-29T06:44:40;101234.56;;;35.64;100.00
6028;BME280;3042;43.194;27.646;2023-07-29T06:47:07;101277.31;;;35.34;100.00
6028;BME280;3042;43.194;27.646;2023-07-29T06:49:34;101251.28;;;35.86;100.00
6028;BME280;3042;43.194;27.646;2023-07-29T06:52:01;101251.19;;;35.88;100.00
6028;BME280;3042;43.194;27.646;2023-07-29T06:54:28;101241.56;;;36.17;100.00
6028;BME280;3042;43.194;27.646;2023-07-29T06:56:55;101225.75;;;36.11;100.00
6028;BME280;3042;43.194;27.646;2023-07-29T06:59:22;101256.75;;;36.01;100.00
6028;BME280;3042;43.194;27.646;2023-07-29T07:01:51;101266.09;;;35.43;100.00
6028;BME280;3042;43.194;27.646;2023-07-29T07:04:18;101263.31;;;35.44;100.00
6028;BME280;3042;43.194;27.646;2023-07-29T07:06:45;101267.66;;;35.29;100.00
6028;BME280;3042;43.194;27.646;2023-07-29T07:09:12;101275.78;;;35.11;100.00
6028;BME280;3042;43.194;27.646;2023-07-29T07:11:39;101282.56;;;34.62;100.00
6028;BME280;3042;43.194;27.646;2023-07-29T07:14:06;101278.44;;;34.74;100.00
6028;BME280;3042;43.194;27.646;2023-07-29T07:16:33;101284.97;;;34.68;100.00
6028;BME280;3042;43.194;27.646;2023-07-29T07:19:03;101282.06;;;34.73;100.00
6028;BME280;3042;43.194;27.646;2023-07-29T07:21:30;101291.69;;;34.39;100.00
6028;BME280;3042;43.194;27.646;2023-07-29T07:23:58;101303.50;;;34.16;100.00
6028;BME280;3042;43.194;27.646;2023-07-29T07:26:25;101294.50;;;34.17;100.00
6028;BME280;3042;43.194;27.646;2023-07-29T07:28:52;101288.56;;;34.30;100.00
6028;BME280;3042;43.194;27.646;2023-07-29T07:31:19;101274.00;;;34.16;100.00
6028;BME280;3042;43.194;27.646;2023-07-29T07:33:46;101252.00;;;34.46;100.00
6028;BME280;3042;43.194;27.646;2023-07-29T07:36:14;101257.84;;;34.75;100.00
6028;BME280;3042;43.194;27.646;2023-07-29T07:38:41;101261.63;;;34.71;100.00
6028;BME280;3042;43.194;27.646;2023-07-29T07:41:08;101269.56;;;34.34;100.00
6028;BME280;3042;43.194;27.646;2023-07-29T07:43:35;101267.91;;;34.32;100.00
6028;BME280;3042;43.194;27.646;2023-07-29T07:46:03;101204.50;;;34.10;100.00
6028;BME280;3042;43.194;27.646;2023-07-29T07:48:30;101248.81;;;34.38;100.00
6028;BME280;3042;43.194;27.646;2023-07-29T07:50:58;101247.53;;;34.65;100.00
6028;BME280;3042;43.194;27.646;2023-07-29T07:53:26;101251.91;;;34.68;100.00
6028;BME280;3042;43.194;27.646;2023-07-29T07:55:53;101250.06;;;34.68;100.00
6028;BME280;3042;43.194;27.646;2023-07-29T07:58:20;101240.75;;;34.76;100.00
6028;BME280;3042;43.194;27.646;2023-07-29T08:00:47;101238.94;;;34.76;100.00
6028;BME280;3042;43.194;27.646;2023-07-29T08:03:14;101230.81;;;34.78;100.00
6028;BME280;3042;43.194;27.646;2023-07-29T08:05:41;101236.03;;;34.81;100.00
6028;BME280;3042;43.194;27.646;2023-07-29T08:08:08;101230.38;;;34.87;100.00
6028;BME280;3042;43.194;27.646;2023-07-29T08:10:37;101209.00;;;34.84;100.00
6028;BME280;3042;43.194;27.646;2023-07-29T08:13:04;101171.72;;;34.22;100.00
6028;BME280;3042;43.194;27.646;2023-07-29T08:15:30;101225.13;;;34.84;100.00
6028;BME280;3042;43.194;27.646;2023-07-29T08:17:57;101242.22;;;34.45;100.00
6028;BME280;3042;43.194;27.646;2023-07-29T08:20:24;101161.31;;;33.77;100.00
6028;BME280;3042;43.194;27.646;2023-07-29T08:22:51;101217.34;;;34.60;100.00
6028;BME280;3042;43.194;27.646;2023-07-29T08:25:18;101203.63;;;34.84;100.00
6028;BME280;3042;43.194;27.646;2023-07-29T08:27:47;101176.09;;;34.80;100.00
6028;BME280;3042;43.194;27.646;2023-07-29T08:30:14;101185.00;;;34.63;100.00
6028;BME280;3042;43.194;27.646;2023-07-29T08:32:41;101196.53;;;34.83;100.00
6028;BME280;3042;43.194;27.646;2023-07-29T08:35:10;101202.81;;;34.45;98.72
6028;BME280;3042;43.194;27.646;2023-07-29T08:37:37;101185.34;;;34.92;98.65
6028;BME280;3042;43.194;27.646;2023-07-29T08:40:05;101177.09;;;34.95;87.18
6028;BME280;3042;43.194;27.646;2023-07-29T08:42:32;101172.84;;;35.08;79.24
6028;BME280;3042;43.194;27.646;2023-07-29T08:45:06;101128.63;;;35.16;74.77
6028;BME280;3042;43.194;27.646;2023-07-29T08:47:34;101096.66;;;35.09;68.27
6028;BME280;3042;43.194;27.646;2023-07-29T08:50:01;101140.09;;;35.53;63.14
6028;BME280;3042;43.194;27.646;2023-07-29T08:52:30;101145.88;;;35.62;63.01
6028;BME280;3042;43.194;27.646;2023-07-29T08:55:00;101119.97;;;35.77;61.10
6028;BME280;3042;43.194;27.646;2023-07-29T08:57:28;100975.09;;;34.88;63.13
6028;BME280;3042;43.194;27.646;2023-07-29T08:59:55;101125.06;;;35.66;63.04
6028;BME280;3042;43.194;27.646;2023-07-29T09:02:24;101036.09;;;35.37;63.65
6028;BME280;3042;43.194;27.646;2023-07-29T09:04:51;101105.22;;;35.84;66.21
6028;BME280;3042;43.194;27.646;2023-07-29T09:07:19;101104.00;;;35.90;66.75
6028;BME280;3042;43.194;27.646;2023-07-29T09:09:46;101107.66;;;35.73;64.86
6028;BME280;3042;43.194;27.646;2023-07-29T09:12:13;101093.94;;;35.93;65.20
6028;BME280;3042;43.194;27.646;2023-07-29T09:14:40;101104.84;;;35.75;62.95
6028;BME280;3042;43.194;27.646;2023-07-29T09:17:07;101104.97;;;35.73;62.66
6028;BME280;3042;43.194;27.646;2023-07-29T09:19:37;101076.06;;;35.92;64.26
6028;BME280;3042;43.194;27.646;2023-07-29T09:22:04;101078.75;;;36.24;62.64
6028;BME280;3042;43.194;27.646;2023-07-29T09:24:31;101093.78;;;36.28;61.84
6028;BME280;3042;43.194;27.646;2023-07-29T09:26:59;101087.63;;;36.10;61.20
6028;BME280;3042;43.194;27.646;2023-07-29T09:29:28;101084.31;;;36.21;60.77
6028;BME280;3042;43.194;27.646;2023-07-29T09:32:17;101069.44;;;36.46;61.07
6028;BME280;3042;43.194;27.646;2023-07-29T09:34:47;101066.56;;;36.49;60.20
6028;BME280;3042;43.194;27.646;2023-07-29T09:37:18;100678.47;;;34.31;60.31
6028;BME280;3042;43.194;27.646;2023-07-29T09:39:47;101064.44;;;36.54;59.77
6028;BME280;3042;43.194;27.646;2023-07-29T09:42:18;101069.84;;;36.54;60.59
6028;BME280;3042;43.194;27.646;2023-07-29T09:44:46;101056.16;;;36.57;62.07
6028;BME280;3042;43.194;27.646;2023-07-29T09:47:20;101041.88;;;36.41;60.38
6028;BME280;3042;43.194;27.646;2023-07-29T09:49:49;101063.66;;;36.52;59.52
6028;BME280;3042;43.194;27.646;2023-07-29T09:52:17;101050.31;;;36.50;58.82
6028;BME280;3042;43.194;27.646;2023-07-29T09:54:44;101052.31;;;36.47;59.12
6028;BME280;3042;43.194;27.646;2023-07-29T09:57:13;101057.84;;;36.29;59.98
6028;BME280;3042;43.194;27.646;2023-07-29T09:59:41;100936.63;;;35.37;60.39
6028;BME280;3042;43.194;27.646;2023-07-29T10:02:15;101053.38;;;36.28;62.50
6028;BME280;3042;43.194;27.646;2023-07-29T10:04:42;101003.31;;;36.26;62.02
6028;BME280;3042;43.194;27.646;2023-07-29T10:07:12;101028.25;;;36.44;60.77
6028;BME280;3042;43.194;27.646;2023-07-29T10:09:39;101030.78;;;36.77;61.54
6028;BME280;3042;43.194;27.646;2023-07-29T10:12:07;100959.63;;;36.51;60.51
6028;BME280;3042;43.194;27.646;2023-07-29T10:14:34;100971.34;;;36.50;59.53
6028;BME280;3042;43.194;27.646;2023-07-29T10:17:05;101012.81;;;37.06;59.87
6028;BME280;3042;43.194;27.646;2023-07-29T10:19:32;101019.53;;;36.99;59.45
6028;BME280;3042;43.194;27.646;2023-07-29T10:21:59;101018.66;;;36.98;60.88
6028;BME280;3042;43.194;27.646;2023-07-29T10:24:30;101009.94;;;37.09;61.15
6028;BME280;3042;43.194;27.646;2023-07-29T10:27:00;101011.59;;;37.12;58.90
6028;BME280;3042;43.194;27.646;2023-07-29T10:29:30;101024.31;;;36.80;57.28
6028;BME280;3042;43.194;27.646;2023-07-29T10:32:01;100993.16;;;36.90;59.28
6028;BME280;3042;43.194;27.646;2023-07-29T10:34:30;100995.38;;;37.26;59.43
6028;BME280;3042;43.194;27.646;2023-07-29T10:36:57;101000.28;;;37.34;59.28
6028;BME280;3042;43.194;27.646;2023-07-29T10:39:25;100995.06;;;37.45;60.58
6028;BME280;3042;43.194;27.646;2023-07-29T10:41:57;100988.72;;;37.61;60.31
6028;BME280;3042;43.194;27.646;2023-07-29T10:44:46;100969.56;;;37.78;57.71
6028;BME280;3042;43.194;27.646;2023-07-29T10:47:15;100968.81;;;37.76;58.91
6028;BME280;3042;43.194;27.646;2023-07-29T10:49:43;100968.81;;;37.76;58.56
6028;BME280;3042;43.194;27.646;2023-07-29T10:52:13;100977.00;;;37.74;57.68
6028;BME280;3042;43.194;27.646;2023-07-29T10:54:45;100982.91;;;37.67;56.45
6028;BME280;3042;43.194;27.646;2023-07-29T10:57:20;100985.91;;;37.62;56.19
6028;BME280;3042;43.194;27.646;2023-07-29T10:59:57;100977.13;;;37.73;55.00
6028;BME280;3042;43.194;27.646;2023-07-29T11:02:29;100980.38;;;37.78;56.17
6028;BME280;3042;43.194;27.646;2023-07-29T11:04:56;100974.88;;;37.24;54.22
6028;BME280;3042;43.194;27.646;2023-07-29T11:07:26;100996.47;;;37.24;55.93
6028;BME280;3042;43.194;27.646;2023-07-29T11:10:04;100972.97;;;37.67;56.17
6028;BME280;3042;43.194;27.646;2023-07-29T11:12:44;100975.50;;;37.70;53.61
6028;BME280;3042;43.194;27.646;2023-07-29T11:15:18;100981.97;;;37.68;52.59
6028;BME280;3042;43.194;27.646;2023-07-29T11:17:46;100970.28;;;37.94;53.38
6028;BME280;3042;43.194;27.646;2023-07-29T11:20:14;100969.56;;;37.78;53.93
6028;BME280;3042;43.194;27.646;2023-07-29T11:22:42;100983.88;;;37.66;54.34
6028;BME280;3042;43.194;27.646;2023-07-29T11:25:10;100970.13;;;37.83;54.16
6028;BME280;3042;43.194;27.646;2023-07-29T11:27:38;100887.81;;;37.36;52.79
6028;BME280;3042;43.194;27.646;2023-07-29T11:30:08;100962.16;;;37.82;52.62
6028;BME280;3042;43.194;27.646;2023-07-29T11:32:36;100823.38;;;37.04;53.85
6028;BME280;3042;43.194;27.646;2023-07-29T11:35:05;100959.00;;;37.75;53.33
6028;BME280;3042;43.194;27.646;2023-07-29T11:37:33;100956.84;;;37.80;52.49
6028;BME280;3042;43.194;27.646;2023-07-29T11:40:00;100943.06;;;37.97;52.51
6028;BME280;3042;43.194;27.646;2023-07-29T11:42:28;100947.16;;;37.90;53.47
6028;BME280;3042;43.194;27.646;2023-07-29T11:44:56;100952.56;;;37.90;53.09
6028;BME280;3042;43.194;27.646;2023-07-29T11:47:26;100947.91;;;37.92;52.99
6028;BME280;3042;43.194;27.646;2023-07-29T11:49:53;100944.41;;;38.05;52.96
6028;BME280;3042;43.194;27.646;2023-07-29T11:52:20;100936.25;;;38.19;52.96
6028;BME280;3042;43.194;27.646;2023-07-29T11:54:48;100942.16;;;38.11;52.49
6028;BME280;3042;43.194;27.646;2023-07-29T11:57:16;100928.91;;;38.21;53.01
6028;BME280;3042;43.194;27.646;2023-07-29T11:59:45;100903.09;;;37.77;53.49
6028;BME280;3042;43.194;27.646;2023-07-29T12:02:15;100924.34;;;38.09;53.58
6028;BME280;3042;43.194;27.646;2023-07-29T12:04:44;100841.91;;;37.50;53.59
6028;BME280;3042;43.194;27.646;2023-07-29T12:07:13;100932.34;;;37.83;64.11
6028;BME280;3042;43.194;27.646;2023-07-29T12:09:40;100952.69;;;37.62;63.71
6028;BME280;3042;43.194;27.646;2023-07-29T12:12:08;100939.59;;;37.95;63.27
6028;BME280;3042;43.194;27.646;2023-07-29T12:14:35;100922.63;;;38.08;63.94
6028;BME280;3042;43.194;27.646;2023-07-29T12:17:04;100939.91;;;38.05;64.92
6028;BME280;3042;43.194;27.646;2023-07-29T12:19:32;100951.25;;;37.83;65.53
6028;BME280;3042;43.194;27.646;2023-07-29T12:22:02;100943.91;;;37.85;67.34
6028;BME280;3042;43.194;27.646;2023-07-29T12:24:30;100957.25;;;37.74;63.30
6028;BME280;3042;43.194;27.646;2023-07-29T12:26:57;100951.38;;;37.94;62.34
6028;BME280;3042;43.194;27.646;2023-07-29T12:29:25;100941.75;;;37.90;65.88
6028;BME280;3042;43.194;27.646;2023-07-29T12:31:57;100934.94;;;38.12;65.48
6028;BME280;3042;43.194;27.646;2023-07-29T12:34:25;100711.47;;;36.57;68.15
6028;BME280;3042;43.194;27.646;2023-07-29T12:36:53;100773.03;;;36.78;69.58
6028;BME280;3042;43.194;27.646;2023-07-29T12:39:23;100953.78;;;37.72;72.67
6028;BME280;3042;43.194;27.646;2023-07-29T12:41:53;100958.78;;;37.78;69.96
6028;BME280;3042;43.194;27.646;2023-07-29T12:44:20;100956.28;;;37.75;71.86
6028;BME280;3042;43.194;27.646;2023-07-29T12:46:47;100975.69;;;37.53;71.78
6028;BME280;3042;43.194;27.646;2023-07-29T12:49:14;100966.38;;;37.44;73.68
6028;BME280;3042;43.194;27.646;2023-07-29T12:51:41;100954.19;;;37.24;74.65
6028;BME280;3042;43.194;27.646;2023-07-29T12:54:10;100966.38;;;37.30;75.39
6028;BME280;3042;43.194;27.646;2023-07-29T12:56:38;100969.81;;;37.46;76.11
6028;BME280;3042;43.194;27.646;2023-07-29T12:59:05;100985.66;;;36.95;74.61
6028;BME280;3042;43.194;27.646;2023-07-29T13:01:32;100972.56;;;37.32;76.80
6028;BME280;3042;43.194;27.646;2023-07-29T13:03:59;100970.25;;;37.40;76.72